createdAt,value
2022-08-26T00:01:51.889Z,100.00
2022-08-26T00:04:18.978Z,100.00
2022-08-26T00:06:46.265Z,100.00
2022-08-26T00:09:16.001Z,100.00
2022-08-26T00:11:43.591Z,100.00
2022-08-26T00:14:10.205Z,100.00
2022-08-26T00:16:36.834Z,100.00
2022-08-26T00:19:07.856Z,100.00
2022-08-26T00:21:34.986Z,100.00
2022-08-26T00:24:04.317Z,100.00
2022-08-26T00:26:30.898Z,100.00
2022-08-26T00:28:57.359Z,100.00
2022-08-26T00:31:23.901Z,100.00
2022-08-26T00:33:50.450Z,100.00
2022-08-26T00:36:20.316Z,100.00
2022-08-26T00:38:47.984Z,100.00
2022-08-26T00:41:14.764Z,100.00
2022-08-26T00:43:47.155Z,100.00
2022-08-26T00:46:19.718Z,100.00
2022-08-26T00:48:50.064Z,100.00
2022-08-26T00:51:21.688Z,100.00
2022-08-26T00:53:54.303Z,100.00
2022-08-26T00:56:31.794Z,100.00
2022-08-26T00:59:02.465Z,100.00
2022-08-26T01:01:31.264Z,100.00
2022-08-26T01:03:59.977Z,100.00
2022-08-26T01:06:27.350Z,100.00
2022-08-26T01:08:54.547Z,100.00
2022-08-26T01:11:21.248Z,100.00
2022-08-26T01:13:51.087Z,100.00
2022-08-26T01:16:17.911Z,100.00
2022-08-26T01:18:45.327Z,100.00
2022-08-26T01:21:30.688Z,100.00
2022-08-26T01:23:58.751Z,100.00
2022-08-26T01:26:35.477Z,100.00
2022-08-26T01:29:06.053Z,100.00
2022-08-26T01:31:37.389Z,100.00
2022-08-26T01:34:12.691Z,100.00
2022-08-26T01:36:40.075Z,100.00
2022-08-26T01:39:08.183Z,100.00
2022-08-26T01:41:36.473Z,100.00
2022-08-26T01:44:06.688Z,100.00
2022-08-26T01:46:36.983Z,100.00
2022-08-26T01:49:06.556Z,100.00
2022-08-26T01:51:37.277Z,100.00
2022-08-26T01:54:06.650Z,100.00
2022-08-26T01:56:36.584Z,100.00
2022-08-26T01:59:07.641Z,100.00
2022-08-26T02:01:36.187Z,100.00
2022-08-26T02:04:25.554Z,100.00
2022-08-26T02:06:54.375Z,100.00
2022-08-26T02:09:22.213Z,100.00
2022-08-26T02:11:48.740Z,100.00
2022-08-26T02:14:30.395Z,100.00
2022-08-26T02:16:57.068Z,100.00
2022-08-26T02:19:30.587Z,100.00
2022-08-26T02:22:00.540Z,100.00
2022-08-26T02:24:30.247Z,100.00
2022-08-26T02:26:58.160Z,100.00
2022-08-26T02:29:29.235Z,100.00
2022-08-26T02:31:58.093Z,100.00
2022-08-26T02:34:35.043Z,100.00
2022-08-26T02:37:06.629Z,100.00
2022-08-26T02:39:34.752Z,100.00
2022-08-26T02:42:01.595Z,100.00
2022-08-26T02:44:28.161Z,100.00
2022-08-26T02:46:55.177Z,100.00
2022-08-26T02:49:23.739Z,100.00
2022-08-26T02:51:51.160Z,100.00
2022-08-26T02:54:21.255Z,100.00
2022-08-26T02:56:48.671Z,100.00
2022-08-26T02:59:15.454Z,100.00
2022-08-26T03:01:42.816Z,100.00
2022-08-26T03:04:11.658Z,100.00
2022-08-26T03:06:38.962Z,100.00
2022-08-26T03:09:07.849Z,100.00
2022-08-26T03:11:35.703Z,100.00
2022-08-26T03:14:03.810Z,100.00
2022-08-26T03:16:37.540Z,100.00
2022-08-26T03:19:06.303Z,100.00
2022-08-26T03:21:35.070Z,100.00
2022-08-26T03:24:03.530Z,100.00
2022-08-26T03:26:30.656Z,100.00
2022-08-26T03:29:15.823Z,100.00
2022-08-26T03:31:43.400Z,100.00
2022-08-26T03:34:11.293Z,100.00
2022-08-26T03:36:38.668Z,100.00
2022-08-26T03:39:05.813Z,100.00
2022-08-26T03:41:34.384Z,100.00
2022-08-26T03:44:01.890Z,100.00
2022-08-26T03:46:28.893Z,100.00
2022-08-26T03:48:56.171Z,100.00
2022-08-26T03:51:22.886Z,100.00
2022-08-26T03:53:50.814Z,100.00
2022-08-26T03:56:17.337Z,100.00
2022-08-26T03:58:44.665Z,100.00
2022-08-26T04:01:15.682Z,100.00
2022-08-26T04:04:00.373Z,100.00
2022-08-26T04:06:31.571Z,100.00
2022-08-26T04:09:00.307Z,100.00
2022-08-26T04:11:32.157Z,100.00
2022-08-26T04:14:04.952Z,100.00
2022-08-26T04:16:33.184Z,100.00
2022-08-26T04:19:00.094Z,100.00
2022-08-26T04:21:28.239Z,100.00
2022-08-26T04:23:56.171Z,100.00
2022-08-26T04:26:25.131Z,100.00
2022-08-26T04:28:54.714Z,100.00
2022-08-26T04:31:21.550Z,100.00
2022-08-26T04:33:50.018Z,100.00
2022-08-26T04:36:20.084Z,100.00
2022-08-26T04:38:47.532Z,100.00
2022-08-26T04:41:15.560Z,100.00
2022-08-26T04:43:44.499Z,100.00
2022-08-26T04:46:13.030Z,100.00
2022-08-26T04:48:41.361Z,100.00
2022-08-26T04:51:09.182Z,100.00
2022-08-26T04:53:36.805Z,100.00
2022-08-26T04:56:04.142Z,100.00
2022-08-26T04:58:31.004Z,100.00
2022-08-26T05:00:58.420Z,100.00
2022-08-26T05:03:27.213Z,100.00
2022-08-26T05:05:57.329Z,100.00
2022-08-26T05:08:24.336Z,100.00
2022-08-26T05:10:56.386Z,100.00
2022-08-26T05:13:27.248Z,100.00
2022-08-26T05:15:54.472Z,100.00
2022-08-26T05:18:24.024Z,100.00
2022-08-26T05:20:54.422Z,100.00
2022-08-26T05:23:22.942Z,100.00
2022-08-26T05:25:53.645Z,100.00
2022-08-26T05:28:22.539Z,100.00
2022-08-26T05:30:50.206Z,100.00
2022-08-26T05:33:18.429Z,100.00
2022-08-26T05:35:46.097Z,100.00
2022-08-26T05:38:21.094Z,100.00
2022-08-26T05:40:52.877Z,100.00
2022-08-26T05:43:20.450Z,100.00
2022-08-26T05:45:50.624Z,100.00
2022-08-26T05:48:22.660Z,100.00
2022-08-26T05:50:53.235Z,100.00
2022-08-26T05:53:21.803Z,100.00
2022-08-26T05:55:50.707Z,100.00
2022-08-26T05:58:21.986Z,100.00
2022-08-26T06:01:00.681Z,100.00
2022-08-26T06:03:28.279Z,100.00
2022-08-26T06:05:55.208Z,100.00
2022-08-26T06:08:22.077Z,100.00
2022-08-26T06:10:52.770Z,100.00
2022-08-26T06:13:27.757Z,100.00
2022-08-26T06:15:59.767Z,100.00
2022-08-26T06:18:36.442Z,100.00
2022-08-26T06:21:14.455Z,100.00
2022-08-26T06:23:59.734Z,100.00
2022-08-26T06:26:27.384Z,100.00
2022-08-26T06:28:55.491Z,100.00
2022-08-26T06:31:23.352Z,100.00
2022-08-26T06:33:51.192Z,100.00
2022-08-26T06:36:27.366Z,100.00
2022-08-26T06:38:56.831Z,100.00
2022-08-26T06:41:23.531Z,100.00
2022-08-26T06:43:50.210Z,100.00
2022-08-26T06:46:21.691Z,100.00
2022-08-26T06:48:50.464Z,100.00
2022-08-26T06:51:23.603Z,100.00
2022-08-26T06:53:52.767Z,100.00
2022-08-26T06:56:23.324Z,100.00
2022-08-26T06:58:54.333Z,100.00
2022-08-26T07:01:32.298Z,100.00
2022-08-26T07:04:03.851Z,100.00
2022-08-26T07:06:40.383Z,100.00
2022-08-26T07:09:09.995Z,100.00
2022-08-26T07:11:38.849Z,100.00
2022-08-26T07:14:06.162Z,100.00
2022-08-26T07:16:32.856Z,100.00
2022-08-26T07:18:59.547Z,100.00
2022-08-26T07:21:28.005Z,99.13
2022-08-26T07:24:00.047Z,98.89
2022-08-26T07:26:30.160Z,99.19
2022-08-26T07:28:58.288Z,98.46
2022-08-26T07:31:27.892Z,98.30
2022-08-26T07:33:57.167Z,98.76
2022-08-26T07:36:24.614Z,97.96
2022-08-26T07:38:52.573Z,95.09
2022-08-26T07:41:22.874Z,95.96
2022-08-26T07:43:50.125Z,96.39
2022-08-26T07:46:27.027Z,92.29
2022-08-26T07:48:53.875Z,91.32
2022-08-26T07:51:21.881Z,91.72
2022-08-26T07:53:52.556Z,92.11
2022-08-26T07:56:19.930Z,91.36
2022-08-26T07:58:51.498Z,90.02
2022-08-26T08:01:23.848Z,89.34
2022-08-26T08:03:51.926Z,88.29
2022-08-26T08:06:20.378Z,86.43
2022-08-26T08:08:47.495Z,80.96
2022-08-26T08:11:14.620Z,78.92
2022-08-26T08:13:41.365Z,75.16
2022-08-26T08:16:12.450Z,69.71
2022-08-26T08:18:40.495Z,66.42
2022-08-26T08:21:23.858Z,65.61
2022-08-26T08:23:55.595Z,58.74
2022-08-26T08:26:24.332Z,58.03
2022-08-26T08:28:54.483Z,55.56
2022-08-26T08:31:56.212Z,55.68
2022-08-26T08:34:16.758Z,52.95
2022-08-26T08:36:46.377Z,49.84
2022-08-26T08:39:13.830Z,50.26
2022-08-26T08:41:55.880Z,48.68
2022-08-26T08:46:59.717Z,46.93
2022-08-26T08:49:27.593Z,46.88
2022-08-26T08:52:27.803Z,49.40
2022-08-26T08:54:55.675Z,51.38
2022-08-26T08:57:31.788Z,52.48
2022-08-26T09:00:19.600Z,54.86
2022-08-26T09:03:07.969Z,57.17
2022-08-26T09:05:48.543Z,55.15
2022-08-26T09:08:20.074Z,55.80
2022-08-26T09:10:54.529Z,57.08
2022-08-26T09:13:25.248Z,56.31
2022-08-26T09:16:10.058Z,56.57
2022-08-26T09:18:42.140Z,57.08
2022-08-26T09:21:15.689Z,51.88
2022-08-26T09:23:49.137Z,49.35
2022-08-26T09:26:19.071Z,47.57
2022-08-26T09:28:49.537Z,47.66
2022-08-26T09:31:23.849Z,50.59
2022-08-26T09:34:06.143Z,51.89
2022-08-26T09:36:43.771Z,55.76
2022-08-26T09:39:25.900Z,57.91
2022-08-26T09:42:09.457Z,61.96
2022-08-26T09:44:51.542Z,62.64
2022-08-26T09:47:25.765Z,63.33
2022-08-26T09:50:28.798Z,61.94
2022-08-26T09:53:17.036Z,64.80
2022-08-26T09:56:08.715Z,64.70
2022-08-26T09:58:38.762Z,66.01
2022-08-26T10:01:16.076Z,67.95
2022-08-26T10:03:44.876Z,68.10
2022-08-26T10:06:16.538Z,72.91
2022-08-26T10:08:47.699Z,76.46
2022-08-26T10:11:30.624Z,76.96
2022-08-26T10:14:04.372Z,76.51
2022-08-26T10:17:10.930Z,78.65
2022-08-26T10:19:55.745Z,78.57
2022-08-26T10:22:36.820Z,77.28
2022-08-26T10:25:09.360Z,73.01
2022-08-26T10:27:54.903Z,71.82
2022-08-26T10:30:27.600Z,72.66
2022-08-26T10:33:03.451Z,72.33
2022-08-26T10:35:31.822Z,72.93
2022-08-26T10:38:07.436Z,74.45
2022-08-26T10:40:49.146Z,74.58
2022-08-26T10:43:22.586Z,74.38
2022-08-26T10:46:01.243Z,75.04
2022-08-26T10:48:41.391Z,74.54
2022-08-26T10:51:11.409Z,74.34
2022-08-26T10:53:44.333Z,70.07
2022-08-26T10:56:22.626Z,69.91
2022-08-26T10:59:12.363Z,69.80
2022-08-26T11:01:50.952Z,68.89
2022-08-26T11:04:38.329Z,69.02
2022-08-26T11:07:36.852Z,61.34
2022-08-26T11:10:23.254Z,58.45
2022-08-26T11:13:03.671Z,52.03
2022-08-26T11:15:30.813Z,52.19
2022-08-26T11:18:01.070Z,49.77
2022-08-26T11:20:27.807Z,46.00
2022-08-26T11:22:56.116Z,45.14
2022-08-26T11:25:30.789Z,46.65
2022-08-26T11:27:59.911Z,47.21
2022-08-26T11:30:38.601Z,47.47
2022-08-26T11:33:08.174Z,46.91
2022-08-26T11:35:34.799Z,43.32
2022-08-26T11:38:15.246Z,41.62
2022-08-26T11:40:42.267Z,39.59
2022-08-26T11:43:21.736Z,40.96
2022-08-26T11:46:03.141Z,42.12
2022-08-26T11:48:38.578Z,40.02
2022-08-26T11:51:27.993Z,39.03
2022-08-26T11:54:11.055Z,38.29
2022-08-26T11:56:40.617Z,36.86
2022-08-26T11:59:15.770Z,36.14
2022-08-26T12:01:45.976Z,35.37
2022-08-26T12:04:29.646Z,36.30
2022-08-26T12:06:58.637Z,35.85
2022-08-26T12:09:34.412Z,37.50
2022-08-26T12:12:16.447Z,36.79
2022-08-26T12:14:43.631Z,35.87
2022-08-26T12:17:16.840Z,35.93
2022-08-26T12:19:43.685Z,34.15
2022-08-26T12:22:34.615Z,33.73
2022-08-26T12:25:08.566Z,33.97
2022-08-26T12:27:41.667Z,32.30
2022-08-26T12:30:13.997Z,33.50
2022-08-26T12:32:55.138Z,34.29
2022-08-26T12:35:25.507Z,34.12
2022-08-26T12:37:54.097Z,36.29
2022-08-26T12:40:53.899Z,33.59
2022-08-26T12:43:37.059Z,32.82
2022-08-26T12:46:06.678Z,36.48
2022-08-26T12:48:37.446Z,35.89
2022-08-26T12:51:08.950Z,40.98
2022-08-26T12:53:43.202Z,39.66
2022-08-26T12:56:31.303Z,34.92
2022-08-26T12:59:06.304Z,35.17
2022-08-26T13:01:38.375Z,32.53
2022-08-26T13:04:06.632Z,32.62
2022-08-26T13:06:34.782Z,32.78
2022-08-26T13:09:05.780Z,29.78
2022-08-26T13:11:39.827Z,31.48
2022-08-26T13:14:10.680Z,30.95
2022-08-26T13:16:39.320Z,29.95
2022-08-26T13:19:10.454Z,33.21
2022-08-26T13:21:47.906Z,32.45
2022-08-26T13:24:25.381Z,30.86
2022-08-26T13:26:51.972Z,31.38
2022-08-26T13:29:19.412Z,30.26
2022-08-26T13:31:46.835Z,29.74
2022-08-26T13:34:18.246Z,29.69
2022-08-26T13:36:45.669Z,29.12
2022-08-26T13:39:14.142Z,29.10
2022-08-26T13:41:40.885Z,30.08
2022-08-26T13:44:07.537Z,31.79
2022-08-26T13:46:37.419Z,31.22
2022-08-26T13:49:06.530Z,33.69
2022-08-26T13:51:33.993Z,37.64
2022-08-26T13:54:00.834Z,37.48
2022-08-26T13:56:29.791Z,37.31
2022-08-26T13:58:57.701Z,38.57
2022-08-26T14:01:24.933Z,38.07
2022-08-26T14:03:51.839Z,39.17
2022-08-26T14:06:18.973Z,38.99
2022-08-26T14:08:46.005Z,40.30
2022-08-26T14:11:12.805Z,42.18
2022-08-26T14:13:42.352Z,43.54
2022-08-26T14:16:19.533Z,46.46
2022-08-26T14:18:50.504Z,48.97
2022-08-26T14:21:17.457Z,50.73
2022-08-26T14:23:44.121Z,52.84
2022-08-26T14:26:12.010Z,54.36
2022-08-26T14:28:57.480Z,53.72
2022-08-26T14:31:24.667Z,54.34
2022-08-26T14:33:51.585Z,55.36
2022-08-26T14:36:33.823Z,55.85
2022-08-26T14:39:08.539Z,55.30
2022-08-26T14:41:39.791Z,56.27
2022-08-26T14:44:11.794Z,53.98
2022-08-26T14:46:46.110Z,55.35
2022-08-26T14:49:13.697Z,55.55
2022-08-26T14:51:43.844Z,54.94
2022-08-26T14:54:13.864Z,54.52
2022-08-26T14:56:59.645Z,55.21
2022-08-26T14:59:32.032Z,53.72
2022-08-26T15:02:00.513Z,54.03
2022-08-26T15:04:27.651Z,53.99
2022-08-26T15:06:56.906Z,54.75
2022-08-26T15:09:24.062Z,54.77
2022-08-26T15:11:56.493Z,54.23
2022-08-26T15:14:27.641Z,55.22
2022-08-26T15:16:57.526Z,54.49
2022-08-26T15:19:26.106Z,54.35
2022-08-26T15:21:52.855Z,55.48
2022-08-26T15:24:22.203Z,55.60
2022-08-26T15:26:49.781Z,53.94
2022-08-26T15:29:16.942Z,55.65
2022-08-26T15:32:04.315Z,54.83
2022-08-26T15:34:33.715Z,55.70
2022-08-26T15:37:00.362Z,56.09
2022-08-26T15:39:27.249Z,57.02
2022-08-26T15:41:56.258Z,57.34
2022-08-26T15:44:23.068Z,55.23
2022-08-26T15:46:50.281Z,54.40
2022-08-26T15:49:18.686Z,56.57
2022-08-26T15:51:47.863Z,58.73
2022-08-26T15:54:16.667Z,59.18
2022-08-26T15:56:44.168Z,61.07
2022-08-26T15:59:11.612Z,60.41
2022-08-26T16:01:39.251Z,60.53
2022-08-26T16:04:06.469Z,58.68
2022-08-26T16:06:35.353Z,59.96
2022-08-26T16:09:02.006Z,60.64
2022-08-26T16:11:29.064Z,59.37
2022-08-26T16:13:55.898Z,60.82
2022-08-26T16:16:22.549Z,60.92
2022-08-26T16:18:49.646Z,62.15
2022-08-26T16:21:20.178Z,62.47
2022-08-26T16:23:47.508Z,65.29
2022-08-26T16:26:20.523Z,67.33
2022-08-26T16:28:47.495Z,67.49
2022-08-26T16:31:15.826Z,68.32
2022-08-26T16:33:42.556Z,68.41
2022-08-26T16:36:10.530Z,68.49
2022-08-26T16:38:37.911Z,68.48
2022-08-26T16:41:05.581Z,68.91
2022-08-26T16:43:32.069Z,69.01
2022-08-26T16:45:59.097Z,69.59
2022-08-26T16:48:26.383Z,71.45
2022-08-26T16:50:55.321Z,71.19
2022-08-26T16:53:23.044Z,71.83
2022-08-26T16:55:51.505Z,74.48
2022-08-26T16:58:22.176Z,76.19
2022-08-26T17:00:49.602Z,76.40
2022-08-26T17:03:16.873Z,78.04
2022-08-26T17:05:43.460Z,77.49
2022-08-26T17:08:10.355Z,78.80
2022-08-26T17:10:37.722Z,79.15
2022-08-26T17:13:04.368Z,79.04
2022-08-26T17:15:31.003Z,79.55
2022-08-26T17:17:57.900Z,79.89
2022-08-26T17:20:24.848Z,81.08
2022-08-26T17:22:53.206Z,79.75
2022-08-26T17:25:21.959Z,79.29
2022-08-26T17:27:48.657Z,80.48
2022-08-26T17:30:16.553Z,82.57
2022-08-26T17:32:44.203Z,81.74
2022-08-26T17:35:13.016Z,82.10
2022-08-26T17:37:39.880Z,81.73
2022-08-26T17:40:10.271Z,82.92
2022-08-26T17:42:37.781Z,83.30
2022-08-26T17:45:06.041Z,82.25
2022-08-26T17:47:32.920Z,82.56
2022-08-26T17:50:01.343Z,82.20
2022-08-26T17:52:28.928Z,83.34
2022-08-26T17:54:58.934Z,85.39
2022-08-26T17:57:25.926Z,86.45
2022-08-26T17:59:54.507Z,87.97
2022-08-26T18:02:22.126Z,90.22
2022-08-26T18:04:49.779Z,91.62
2022-08-26T18:07:18.315Z,93.54
2022-08-26T18:09:47.222Z,93.43
2022-08-26T18:12:15.011Z,92.08
2022-08-26T18:14:42.712Z,93.04
2022-08-26T18:17:09.852Z,92.95
2022-08-26T18:19:37.434Z,95.67
2022-08-26T18:22:05.936Z,94.85
2022-08-26T18:24:33.409Z,94.86
2022-08-26T18:27:00.991Z,93.53
2022-08-26T18:29:28.097Z,93.91
2022-08-26T18:31:57.557Z,95.48
2022-08-26T18:34:24.958Z,96.79
2022-08-26T18:37:00.230Z,94.71
2022-08-26T18:39:26.857Z,94.50
2022-08-26T18:41:53.481Z,93.85
2022-08-26T18:44:23.176Z,93.03
2022-08-26T18:46:52.141Z,91.19
2022-08-26T18:49:21.943Z,92.49
2022-08-26T18:51:53.372Z,95.30
2022-08-26T18:54:22.154Z,95.19
2022-08-26T18:56:49.349Z,94.16
2022-08-26T18:59:17.912Z,91.60
2022-08-26T19:01:45.821Z,93.87
2022-08-26T19:04:18.777Z,93.42
2022-08-26T19:06:49.333Z,92.71
2022-08-26T19:09:17.325Z,93.91
2022-08-26T19:11:46.509Z,94.22
2022-08-26T19:14:16.913Z,92.51
2022-08-26T19:16:47.662Z,91.80
2022-08-26T19:19:15.799Z,92.02
2022-08-26T19:21:45.919Z,93.14
2022-08-26T19:24:17.415Z,93.48
2022-08-26T19:26:57.867Z,93.80
2022-08-26T19:29:28.124Z,93.38
2022-08-26T19:31:55.890Z,92.13
2022-08-26T19:34:23.338Z,93.35
2022-08-26T19:36:57.592Z,96.02
2022-08-26T19:39:26.027Z,100.00
2022-08-26T19:41:53.883Z,100.00
2022-08-26T19:44:41.942Z,100.00
2022-08-26T19:47:12.458Z,100.00
2022-08-26T19:49:39.109Z,100.00
2022-08-26T19:52:06.024Z,100.00
2022-08-26T19:54:32.896Z,100.00
2022-08-26T19:56:59.327Z,100.00
2022-08-26T19:59:25.968Z,100.00
2022-08-26T20:01:55.181Z,100.00
2022-08-26T20:04:28.104Z,100.00
2022-08-26T20:06:57.850Z,100.00
2022-08-26T20:09:28.581Z,100.00
2022-08-26T20:11:56.945Z,100.00
2022-08-26T20:14:23.686Z,100.00
2022-08-26T20:16:50.258Z,100.00
2022-08-26T20:19:37.477Z,100.00
2022-08-26T20:22:04.970Z,100.00
2022-08-26T20:24:32.631Z,100.00
2022-08-26T20:26:59.337Z,100.00
2022-08-26T20:29:25.947Z,100.00
2022-08-26T20:31:53.291Z,100.00
2022-08-26T20:34:21.457Z,100.00
2022-08-26T20:36:51.972Z,100.00
2022-08-26T20:39:21.209Z,100.00
2022-08-26T20:41:48.994Z,100.00
2022-08-26T20:44:17.681Z,100.00
2022-08-26T20:46:44.897Z,100.00
2022-08-26T20:49:13.268Z,100.00
2022-08-26T20:51:42.733Z,100.00
2022-08-26T20:54:11.310Z,100.00
2022-08-26T20:56:38.230Z,100.00
2022-08-26T20:59:06.963Z,100.00
2022-08-26T21:01:35.498Z,100.00
2022-08-26T21:04:05.608Z,100.00
2022-08-26T21:06:33.910Z,100.00
2022-08-26T21:09:02.106Z,100.00
2022-08-26T21:11:29.209Z,100.00
2022-08-26T21:14:16.114Z,100.00
2022-08-26T21:16:43.968Z,100.00
2022-08-26T21:19:12.809Z,100.00
2022-08-26T21:21:39.472Z,100.00
2022-08-26T21:24:06.531Z,100.00
2022-08-26T21:26:33.399Z,100.00
2022-08-26T21:29:01.438Z,100.00
2022-08-26T21:31:29.621Z,100.00
2022-08-26T21:33:56.576Z,100.00
2022-08-26T21:36:23.381Z,100.00
2022-08-26T21:38:49.992Z,100.00
2022-08-26T21:41:22.233Z,100.00
2022-08-26T21:43:50.422Z,100.00
2022-08-26T21:46:20.206Z,100.00
2022-08-26T21:48:51.012Z,100.00
2022-08-26T21:51:21.135Z,100.00
2022-08-26T21:53:48.646Z,100.00
2022-08-26T21:56:17.902Z,100.00
2022-08-26T21:58:44.745Z,100.00
2022-08-26T22:01:17.267Z,100.00
2022-08-26T22:03:47.581Z,100.00
2022-08-26T22:06:15.505Z,100.00
2022-08-26T22:08:42.077Z,100.00
2022-08-26T22:11:09.667Z,100.00
2022-08-26T22:13:38.722Z,100.00
2022-08-26T22:16:06.954Z,100.00
2022-08-26T22:18:34.066Z,100.00
2022-08-26T22:21:04.756Z,100.00
2022-08-26T22:23:32.188Z,100.00
2022-08-26T22:30:02.895Z,100.00
2022-08-26T22:33:09.329Z,100.00
2022-08-26T22:36:28.097Z,100.00
2022-08-26T22:39:17.298Z,100.00
2022-08-26T22:55:06.605Z,100.00
2022-08-26T23:08:17.313Z,100.00
2022-08-26T23:14:45.022Z,100.00
2022-08-26T23:18:15.898Z,100.00
2022-08-26T23:20:56.203Z,100.00
2022-08-26T23:27:15.610Z,100.00
2022-08-26T23:36:07.432Z,100.00
2022-08-26T23:39:24.691Z,100.00
2022-08-26T23:48:28.370Z,100.00
2022-08-26T23:55:12.911Z,100.00
